sensor_id;sensor_type;location;lat;lon;timestamp;P1;durP1;ratioP1;P2;durP2;ratioP2
11135;SDS011;5622;50.840;4.948;2022-09-09T00:01:22;3.93;;;1.50;;
11135;SDS011;5622;50.840;4.948;2022-09-09T00:03:57;2.70;;;1.33;;
11135;SDS011;5622;50.840;4.948;2022-09-09T00:06:30;4.47;;;1.40;;
11135;SDS011;5622;50.840;4.948;2022-09-09T00:09:01;2.23;;;1.20;;
11135;SDS011;5622;50.840;4.948;2022-09-09T00:11:36;1.43;;;1.13;;
11135;SDS011;5622;50.840;4.948;2022-09-09T00:14:12;2.60;;;1.40;;
11135;SDS011;5622;50.840;4.948;2022-09-09T00:16:49;2.27;;;1.23;;
11135;SDS011;5622;50.840;4.948;2022-09-09T00:19:24;3.73;;;1.20;;
11135;SDS011;5622;50.840;4.948;2022-09-09T00:22:01;3.53;;;1.30;;
11135;SDS011;5622;50.840;4.948;2022-09-09T00:24:41;7.23;;;1.40;;
11135;SDS011;5622;50.840;4.948;2022-09-09T00:27:16;2.73;;;1.13;;
11135;SDS011;5622;50.840;4.948;2022-09-09T00:29:54;2.97;;;1.23;;
11135;SDS011;5622;50.840;4.948;2022-09-09T00:32:28;2.50;;;1.50;;
11135;SDS011;5622;50.840;4.948;2022-09-09T00:34:58;4.87;;;1.30;;
11135;SDS011;5622;50.840;4.948;2022-09-09T00:37:30;2.80;;;1.30;;
11135;SDS011;5622;50.840;4.948;2022-09-09T00:40:01;2.17;;;1.23;;
11135;SDS011;5622;50.840;4.948;2022-09-09T00:42:40;1.40;;;1.30;;
11135;SDS011;5622;50.840;4.948;2022-09-09T00:45:15;1.70;;;1.27;;
11135;SDS011;5622;50.840;4.948;2022-09-09T00:47:56;1.83;;;1.50;;
11135;SDS011;5622;50.840;4.948;2022-09-09T00:50:39;3.70;;;1.23;;
11135;SDS011;5622;50.840;4.948;2022-09-09T00:53:21;1.93;;;1.20;;
11135;SDS011;5622;50.840;4.948;2022-09-09T00:55:59;5.40;;;1.90;;
11135;SDS011;5622;50.840;4.948;2022-09-09T00:58:33;4.10;;;1.53;;
11135;SDS011;5622;50.840;4.948;2022-09-09T01:01:02;3.37;;;1.67;;
11135;SDS011;5622;50.840;4.948;2022-09-09T01:03:35;2.80;;;1.67;;
11135;SDS011;5622;50.840;4.948;2022-09-09T01:06:14;4.87;;;1.93;;
11135;SDS011;5622;50.840;4.948;2022-09-09T01:08:58;2.67;;;1.50;;
11135;SDS011;5622;50.840;4.948;2022-09-09T01:11:37;5.77;;;2.10;;
11135;SDS011;5622;50.840;4.948;2022-09-09T01:14:19;3.67;;;1.67;;
11135;SDS011;5622;50.840;4.948;2022-09-09T01:16:58;3.17;;;1.80;;
11135;SDS011;5622;50.840;4.948;2022-09-09T01:19:37;3.90;;;1.97;;
11135;SDS011;5622;50.840;4.948;2022-09-09T01:22:13;6.20;;;2.30;;
11135;SDS011;5622;50.840;4.948;2022-09-09T01:25:01;3.93;;;2.03;;
11135;SDS011;5622;50.840;4.948;2022-09-09T01:27:53;3.10;;;1.43;;
11135;SDS011;5622;50.840;4.948;2022-09-09T01:30:23;3.93;;;1.70;;
11135;SDS011;5622;50.840;4.948;2022-09-09T01:32:53;8.83;;;2.00;;
11135;SDS011;5622;50.840;4.948;2022-09-09T01:35:31;5.67;;;1.97;;
11135;SDS011;5622;50.840;4.948;2022-09-09T01:38:04;5.47;;;1.93;;
11135;SDS011;5622;50.840;4.948;2022-09-09T01:40:32;2.50;;;2.10;;
11135;SDS011;5622;50.840;4.948;2022-09-09T01:43:04;4.43;;;2.00;;
11135;SDS011;5622;50.840;4.948;2022-09-09T01:45:32;4.00;;;2.00;;
11135;SDS011;5622;50.840;4.948;2022-09-09T01:48:03;5.40;;;2.10;;
11135;SDS011;5622;50.840;4.948;2022-09-09T01:50:30;4.80;;;2.17;;
11135;SDS011;5622;50.840;4.948;2022-09-09T01:52:59;3.97;;;2.23;;
11135;SDS011;5622;50.840;4.948;2022-09-09T01:55:29;4.17;;;2.07;;
11135;SDS011;5622;50.840;4.948;2022-09-09T01:58:04;10.13;;;2.50;;
11135;SDS011;5622;50.840;4.948;2022-09-09T02:00:43;4.33;;;2.43;;
11135;SDS011;5622;50.840;4.948;2022-09-09T02:03:20;4.50;;;2.20;;
11135;SDS011;5622;50.840;4.948;2022-09-09T02:05:52;7.07;;;2.37;;
11135;SDS011;5622;50.840;4.948;2022-09-09T02:08:33;5.80;;;2.20;;
11135;SDS011;5622;50.840;4.948;2022-09-09T02:11:08;4.30;;;1.90;;
11135;SDS011;5622;50.840;4.948;2022-09-09T02:13:42;5.33;;;2.77;;
11135;SDS011;5622;50.840;4.948;2022-09-09T02:16:12;6.07;;;2.23;;
11135;SDS011;5622;50.840;4.948;2022-09-09T02:18:45;4.40;;;1.93;;
11135;SDS011;5622;50.840;4.948;2022-09-09T02:21:18;6.00;;;2.20;;
11135;SDS011;5622;50.840;4.948;2022-09-09T02:23:47;7.50;;;1.90;;
11135;SDS011;5622;50.840;4.948;2022-09-09T02:26:17;4.17;;;1.60;;
11135;SDS011;5622;50.840;4.948;2022-09-09T02:28:49;5.57;;;2.43;;
11135;SDS011;5622;50.840;4.948;2022-09-09T02:31:18;6.57;;;1.90;;
11135;SDS011;5622;50.840;4.948;2022-09-09T02:33:47;5.37;;;1.90;;
11135;SDS011;5622;50.840;4.948;2022-09-09T02:36:21;6.30;;;2.40;;
11135;SDS011;5622;50.840;4.948;2022-09-09T02:38:51;4.10;;;2.37;;
11135;SDS011;5622;50.840;4.948;2022-09-09T02:41:30;5.50;;;2.23;;
11135;SDS011;5622;50.840;4.948;2022-09-09T02:44:01;4.27;;;2.30;;
11135;SDS011;5622;50.840;4.948;2022-09-09T02:46:43;6.43;;;2.83;;
11135;SDS011;5622;50.840;4.948;2022-09-09T02:49:27;5.90;;;3.13;;
11135;SDS011;5622;50.840;4.948;2022-09-09T02:52:01;8.20;;;3.00;;
11135;SDS011;5622;50.840;4.948;2022-09-09T02:54:32;7.67;;;2.80;;
11135;SDS011;5622;50.840;4.948;2022-09-09T02:57:02;3.83;;;2.20;;
11135;SDS011;5622;50.840;4.948;2022-09-09T02:59:38;4.60;;;2.30;;
11135;SDS011;5622;50.840;4.948;2022-09-09T03:02:06;4.43;;;2.50;;
11135;SDS011;5622;50.840;4.948;2022-09-09T03:04:36;7.30;;;2.60;;
11135;SDS011;5622;50.840;4.948;2022-09-09T03:07:04;7.50;;;2.57;;
11135;SDS011;5622;50.840;4.948;2022-09-09T03:09:31;5.17;;;2.13;;
11135;SDS011;5622;50.840;4.948;2022-09-09T03:11:58;6.63;;;2.50;;
11135;SDS011;5622;50.840;4.948;2022-09-09T03:14:29;4.73;;;2.30;;
11135;SDS011;5622;50.840;4.948;2022-09-09T03:16:58;4.73;;;2.10;;
11135;SDS011;5622;50.840;4.948;2022-09-09T03:19:27;6.00;;;2.47;;
11135;SDS011;5622;50.840;4.948;2022-09-09T03:21:55;8.87;;;2.53;;
11135;SDS011;5622;50.840;4.948;2022-09-09T03:24:23;7.70;;;2.10;;
11135;SDS011;5622;50.840;4.948;2022-09-09T03:26:51;7.90;;;2.30;;
11135;SDS011;5622;50.840;4.948;2022-09-09T03:29:18;3.93;;;2.00;;
11135;SDS011;5622;50.840;4.948;2022-09-09T03:31:48;6.03;;;2.60;;
11135;SDS011;5622;50.840;4.948;2022-09-09T03:34:20;4.70;;;2.20;;
11135;SDS011;5622;50.840;4.948;2022-09-09T03:36:50;6.60;;;2.10;;
11135;SDS011;5622;50.840;4.948;2022-09-09T03:39:18;7.43;;;2.60;;
11135;SDS011;5622;50.840;4.948;2022-09-09T03:41:46;4.73;;;2.50;;
11135;SDS011;5622;50.840;4.948;2022-09-09T03:44:13;7.47;;;2.43;;
11135;SDS011;5622;50.840;4.948;2022-09-09T03:46:41;7.50;;;2.33;;
11135;SDS011;5622;50.840;4.948;2022-09-09T03:49:08;4.67;;;2.00;;
11135;SDS011;5622;50.840;4.948;2022-09-09T03:51:38;6.43;;;2.53;;
11135;SDS011;5622;50.840;4.948;2022-09-09T03:54:08;7.33;;;2.33;;
11135;SDS011;5622;50.840;4.948;2022-09-09T03:56:37;5.90;;;2.17;;
11135;SDS011;5622;50.840;4.948;2022-09-09T03:59:07;5.63;;;2.00;;
11135;SDS011;5622;50.840;4.948;2022-09-09T04:01:35;4.77;;;2.33;;
11135;SDS011;5622;50.840;4.948;2022-09-09T04:04:05;3.53;;;1.83;;
11135;SDS011;5622;50.840;4.948;2022-09-09T04:06:34;5.77;;;2.33;;
11135;SDS011;5622;50.840;4.948;2022-09-09T04:09:03;5.53;;;1.73;;
11135;SDS011;5622;50.840;4.948;2022-09-09T04:11:31;6.20;;;1.97;;
11135;SDS011;5622;50.840;4.948;2022-09-09T04:13:59;3.97;;;2.03;;
11135;SDS011;5622;50.840;4.948;2022-09-09T04:16:31;5.93;;;2.00;;
11135;SDS011;5622;50.840;4.948;2022-09-09T04:19:04;3.67;;;1.90;;
11135;SDS011;5622;50.840;4.948;2022-09-09T04:21:34;5.93;;;2.00;;
11135;SDS011;5622;50.840;4.948;2022-09-09T04:24:04;4.20;;;2.10;;
11135;SDS011;5622;50.840;4.948;2022-09-09T04:26:31;6.67;;;2.10;;
11135;SDS011;5622;50.840;4.948;2022-09-09T04:29:01;4.20;;;2.33;;
11135;SDS011;5622;50.840;4.948;2022-09-09T04:31:29;3.37;;;1.93;;
11135;SDS011;5622;50.840;4.948;2022-09-09T04:33:56;7.40;;;2.40;;
11135;SDS011;5622;50.840;4.948;2022-09-09T04:36:29;6.30;;;2.20;;
11135;SDS011;5622;50.840;4.948;2022-09-09T04:38:57;7.43;;;2.10;;
11135;SDS011;5622;50.840;4.948;2022-09-09T04:41:26;5.17;;;2.30;;
11135;SDS011;5622;50.840;4.948;2022-09-09T04:43:56;7.50;;;2.13;;
11135;SDS011;5622;50.840;4.948;2022-09-09T04:46:24;5.27;;;2.50;;
11135;SDS011;5622;50.840;4.948;2022-09-09T04:48:52;7.13;;;2.30;;
11135;SDS011;5622;50.840;4.948;2022-09-09T04:51:21;4.90;;;2.10;;
11135;SDS011;5622;50.840;4.948;2022-09-09T04:53:49;6.40;;;2.07;;
11135;SDS011;5622;50.840;4.948;2022-09-09T04:56:19;6.10;;;2.37;;
11135;SDS011;5622;50.840;4.948;2022-09-09T04:58:51;7.23;;;2.53;;
11135;SDS011;5622;50.840;4.948;2022-09-09T05:01:21;8.17;;;2.40;;
11135;SDS011;5622;50.840;4.948;2022-09-09T05:03:54;5.40;;;2.53;;
11135;SDS011;5622;50.840;4.948;2022-09-09T05:06:23;4.33;;;2.33;;
11135;SDS011;5622;50.840;4.948;2022-09-09T05:08:50;8.63;;;2.67;;
11135;SDS011;5622;50.840;4.948;2022-09-09T05:11:19;8.67;;;2.70;;
11135;SDS011;5622;50.840;4.948;2022-09-09T05:13:52;9.47;;;2.70;;
11135;SDS011;5622;50.840;4.948;2022-09-09T05:16:22;8.57;;;3.10;;
11135;SDS011;5622;50.840;4.948;2022-09-09T05:18:53;7.43;;;2.73;;
11135;SDS011;5622;50.840;4.948;2022-09-09T05:21:21;8.07;;;2.60;;
11135;SDS011;5622;50.840;4.948;2022-09-09T05:23:52;10.30;;;3.07;;
11135;SDS011;5622;50.840;4.948;2022-09-09T05:26:20;6.83;;;2.67;;
11135;SDS011;5622;50.840;4.948;2022-09-09T05:34:10;13.23;;;3.00;;
11135;SDS011;5622;50.840;4.948;2022-09-09T05:36:50;7.73;;;2.80;;
11135;SDS011;5622;50.840;4.948;2022-09-09T05:39:21;8.70;;;2.70;;
11135;SDS011;5622;50.840;4.948;2022-09-09T05:41:48;10.77;;;3.53;;
11135;SDS011;5622;50.840;4.948;2022-09-09T05:44:16;6.70;;;2.80;;
11135;SDS011;5622;50.840;4.948;2022-09-09T05:46:44;8.33;;;2.77;;
11135;SDS011;5622;50.840;4.948;2022-09-09T05:49:14;6.40;;;2.53;;
11135;SDS011;5622;50.840;4.948;2022-09-09T05:51:44;8.80;;;2.90;;
11135;SDS011;5622;50.840;4.948;2022-09-09T05:54:35;7.50;;;3.17;;
11135;SDS011;5622;50.840;4.948;2022-09-09T05:57:08;7.73;;;2.90;;
11135;SDS011;5622;50.840;4.948;2022-09-09T05:59:36;8.70;;;2.63;;
11135;SDS011;5622;50.840;4.948;2022-09-09T06:02:12;7.50;;;2.70;;
11135;SDS011;5622;50.840;4.948;2022-09-09T06:05:37;6.03;;;3.10;;
11135;SDS011;5622;50.840;4.948;2022-09-09T06:08:08;7.37;;;2.20;;
11135;SDS011;5622;50.840;4.948;2022-09-09T06:10:39;7.40;;;2.63;;
11135;SDS011;5622;50.840;4.948;2022-09-09T06:13:07;10.03;;;3.07;;
11135;SDS011;5622;50.840;4.948;2022-09-09T06:15:35;12.73;;;3.37;;
11135;SDS011;5622;50.840;4.948;2022-09-09T06:27:56;8.17;;;2.73;;
11135;SDS011;5622;50.840;4.948;2022-09-09T06:30:23;9.23;;;2.80;;
11135;SDS011;5622;50.840;4.948;2022-09-09T06:32:51;6.67;;;2.67;;
11135;SDS011;5622;50.840;4.948;2022-09-09T06:35:22;7.43;;;2.60;;
11135;SDS011;5622;50.840;4.948;2022-09-09T06:37:51;5.97;;;2.60;;
11135;SDS011;5622;50.840;4.948;2022-09-09T06:40:18;9.27;;;2.67;;
11135;SDS011;5622;50.840;4.948;2022-09-09T06:42:45;8.97;;;2.50;;
11135;SDS011;5622;50.840;4.948;2022-09-09T06:45:13;9.90;;;2.33;;
11135;SDS011;5622;50.840;4.948;2022-09-09T06:47:40;9.93;;;2.40;;
11135;SDS011;5622;50.840;4.948;2022-09-09T06:50:08;11.13;;;2.90;;
11135;SDS011;5622;50.840;4.948;2022-09-09T06:52:36;9.23;;;3.23;;
11135;SDS011;5622;50.840;4.948;2022-09-09T06:55:05;3.73;;;2.43;;
11135;SDS011;5622;50.840;4.948;2022-09-09T06:57:33;6.13;;;2.20;;
11135;SDS011;5622;50.840;4.948;2022-09-09T07:00:01;7.00;;;2.77;;
11135;SDS011;5622;50.840;4.948;2022-09-09T07:02:29;8.40;;;2.30;;
11135;SDS011;5622;50.840;4.948;2022-09-09T07:04:57;6.67;;;2.80;;
11135;SDS011;5622;50.840;4.948;2022-09-09T07:07:24;8.80;;;3.07;;
11135;SDS011;5622;50.840;4.948;2022-09-09T07:09:52;6.13;;;2.23;;
11135;SDS011;5622;50.840;4.948;2022-09-09T07:12:20;9.60;;;3.00;;
11135;SDS011;5622;50.840;4.948;2022-09-09T07:14:50;7.90;;;2.63;;
11135;SDS011;5622;50.840;4.948;2022-09-09T07:17:22;7.20;;;2.70;;
11135;SDS011;5622;50.840;4.948;2022-09-09T07:19:49;10.63;;;3.13;;
11135;SDS011;5622;50.840;4.948;2022-09-09T07:22:18;7.90;;;3.03;;
11135;SDS011;5622;50.840;4.948;2022-09-09T07:24:46;7.13;;;2.23;;
11135;SDS011;5622;50.840;4.948;2022-09-09T07:27:14;8.77;;;2.50;;
11135;SDS011;5622;50.840;4.948;2022-09-09T07:29:45;6.33;;;2.93;;
11135;SDS011;5622;50.840;4.948;2022-09-09T07:32:15;9.10;;;2.67;;
11135;SDS011;5622;50.840;4.948;2022-09-09T07:34:44;6.20;;;2.60;;
11135;SDS011;5622;50.840;4.948;2022-09-09T07:37:36;7.33;;;2.57;;
11135;SDS011;5622;50.840;4.948;2022-09-09T07:40:11;8.30;;;2.60;;
11135;SDS011;5622;50.840;4.948;2022-09-09T07:42:47;10.10;;;2.80;;
11135;SDS011;5622;50.840;4.948;2022-09-09T07:45:24;5.37;;;2.67;;
11135;SDS011;5622;50.840;4.948;2022-09-09T07:47:54;5.67;;;2.60;;
11135;SDS011;5622;50.840;4.948;2022-09-09T07:50:28;9.80;;;2.87;;
11135;SDS011;5622;50.840;4.948;2022-09-09T07:52:58;8.97;;;2.80;;
11135;SDS011;5622;50.840;4.948;2022-09-09T07:55:28;7.87;;;2.87;;
11135;SDS011;5622;50.840;4.948;2022-09-09T07:57:55;6.70;;;2.60;;
11135;SDS011;5622;50.840;4.948;2022-09-09T08:00:24;6.03;;;2.53;;
11135;SDS011;5622;50.840;4.948;2022-09-09T08:02:53;7.03;;;2.70;;
11135;SDS011;5622;50.840;4.948;2022-09-09T08:05:20;9.00;;;2.93;;
11135;SDS011;5622;50.840;4.948;2022-09-09T08:07:48;7.37;;;2.83;;
11135;SDS011;5622;50.840;4.948;2022-09-09T08:10:18;6.73;;;2.60;;
11135;SDS011;5622;50.840;4.948;2022-09-09T08:12:45;9.33;;;2.83;;
11135;SDS011;5622;50.840;4.948;2022-09-09T08:15:14;9.67;;;2.60;;
11135;SDS011;5622;50.840;4.948;2022-09-09T08:17:44;9.67;;;2.70;;
11135;SDS011;5622;50.840;4.948;2022-09-09T08:20:15;9.20;;;2.50;;
11135;SDS011;5622;50.840;4.948;2022-09-09T08:22:57;7.10;;;2.77;;
11135;SDS011;5622;50.840;4.948;2022-09-09T08:25:28;10.77;;;3.20;;
11135;SDS011;5622;50.840;4.948;2022-09-09T08:28:05;7.13;;;2.23;;
11135;SDS011;5622;50.840;4.948;2022-09-09T08:30:34;5.00;;;2.10;;
11135;SDS011;5622;50.840;4.948;2022-09-09T08:33:07;6.80;;;2.10;;
11135;SDS011;5622;50.840;4.948;2022-09-09T08:35:36;9.93;;;2.60;;
11135;SDS011;5622;50.840;4.948;2022-09-09T08:38:03;8.10;;;2.20;;
11135;SDS011;5622;50.840;4.948;2022-09-09T08:40:32;7.07;;;2.23;;
11135;SDS011;5622;50.840;4.948;2022-09-09T08:43:05;7.57;;;2.53;;
11135;SDS011;5622;50.840;4.948;2022-09-09T08:45:35;6.80;;;2.50;;
11135;SDS011;5622;50.840;4.948;2022-09-09T08:48:16;7.17;;;2.20;;
11135;SDS011;5622;50.840;4.948;2022-09-09T08:50:56;6.43;;;1.83;;
11135;SDS011;5622;50.840;4.948;2022-09-09T08:53:27;5.80;;;2.30;;
11135;SDS011;5622;50.840;4.948;2022-09-09T08:55:57;6.77;;;2.03;;
11135;SDS011;5622;50.840;4.948;2022-09-09T08:58:26;6.47;;;2.40;;
11135;SDS011;5622;50.840;4.948;2022-09-09T09:01:02;8.23;;;2.43;;
11135;SDS011;5622;50.840;4.948;2022-09-09T09:03:43;5.30;;;2.10;;
11135;SDS011;5622;50.840;4.948;2022-09-09T09:06:22;5.00;;;1.90;;
11135;SDS011;5622;50.840;4.948;2022-09-09T09:09:02;7.03;;;2.20;;
11135;SDS011;5622;50.840;4.948;2022-09-09T09:11:34;7.80;;;2.10;;
11135;SDS011;5622;50.840;4.948;2022-09-09T09:14:08;7.33;;;2.10;;
11135;SDS011;5622;50.840;4.948;2022-09-09T09:16:39;6.00;;;2.23;;
11135;SDS011;5622;50.840;4.948;2022-09-09T09:19:17;6.17;;;2.27;;
11135;SDS011;5622;50.840;4.948;2022-09-09T09:21:48;3.37;;;1.90;;
11135;SDS011;5622;50.840;4.948;2022-09-09T09:24:20;7.13;;;2.17;;
11135;SDS011;5622;50.840;4.948;2022-09-09T09:26:51;7.13;;;2.83;;
11135;SDS011;5622;50.840;4.948;2022-09-09T09:29:19;6.50;;;2.23;;
11135;SDS011;5622;50.840;4.948;2022-09-09T09:31:48;7.23;;;2.90;;
11135;SDS011;5622;50.840;4.948;2022-09-09T09:37:49;11.87;;;3.07;;
11135;SDS011;5622;50.840;4.948;2022-09-09T09:40:17;9.10;;;2.40;;
11135;SDS011;5622;50.840;4.948;2022-09-09T09:42:49;6.50;;;2.67;;
11135;SDS011;5622;50.840;4.948;2022-09-09T09:45:23;5.33;;;2.33;;
11135;SDS011;5622;50.840;4.948;2022-09-09T09:48:00;6.37;;;2.43;;
11135;SDS011;5622;50.840;4.948;2022-09-09T09:50:29;7.90;;;2.30;;
11135;SDS011;5622;50.840;4.948;2022-09-09T09:52:59;4.47;;;2.20;;
11135;SDS011;5622;50.840;4.948;2022-09-09T09:55:29;7.63;;;2.50;;
11135;SDS011;5622;50.840;4.948;2022-09-09T09:58:02;8.67;;;2.67;;
11135;SDS011;5622;50.840;4.948;2022-09-09T10:00:31;7.93;;;2.63;;
11135;SDS011;5622;50.840;4.948;2022-09-09T10:06:31;7.87;;;2.90;;
11135;SDS011;5622;50.840;4.948;2022-09-09T10:09:01;7.07;;;2.73;;
11135;SDS011;5622;50.840;4.948;2022-09-09T10:11:39;6.83;;;2.70;;
11135;SDS011;5622;50.840;4.948;2022-09-09T10:14:13;5.67;;;2.43;;
11135;SDS011;5622;50.840;4.948;2022-09-09T10:16:49;4.93;;;2.63;;
11135;SDS011;5622;50.840;4.948;2022-09-09T10:19:29;5.83;;;2.57;;
11135;SDS011;5622;50.840;4.948;2022-09-09T10:25:00;5.83;;;2.73;;
11135;SDS011;5622;50.840;4.948;2022-09-09T10:27:51;8.57;;;3.00;;
11135;SDS011;5622;50.840;4.948;2022-09-09T10:30:41;4.90;;;2.60;;
11135;SDS011;5622;50.840;4.948;2022-09-09T10:33:20;5.27;;;2.90;;
11135;SDS011;5622;50.840;4.948;2022-09-09T10:35:58;6.50;;;2.70;;
11135;SDS011;5622;50.840;4.948;2022-09-09T10:38:33;10.57;;;3.03;;
11135;SDS011;5622;50.840;4.948;2022-09-09T10:41:11;5.33;;;3.13;;
11135;SDS011;5622;50.840;4.948;2022-09-09T10:46:35;9.43;;;3.17;;
11135;SDS011;5622;50.840;4.948;2022-09-09T10:49:13;7.20;;;3.17;;
11135;SDS011;5622;50.840;4.948;2022-09-09T10:51:51;5.43;;;2.80;;
11135;SDS011;5622;50.840;4.948;2022-09-09T10:54:29;3.93;;;2.93;;
11135;SDS011;5622;50.840;4.948;2022-09-09T10:57:08;7.37;;;3.20;;
11135;SDS011;5622;50.840;4.948;2022-09-09T10:59:42;9.33;;;3.10;;
11135;SDS011;5622;50.840;4.948;2022-09-09T11:02:14;8.53;;;3.30;;
11135;SDS011;5622;50.840;4.948;2022-09-09T11:04:47;9.73;;;3.43;;
11135;SDS011;5622;50.840;4.948;2022-09-09T11:07:28;5.50;;;3.03;;
11135;SDS011;5622;50.840;4.948;2022-09-09T11:10:02;13.17;;;3.40;;
11135;SDS011;5622;50.840;4.948;2022-09-09T11:12:35;9.47;;;3.63;;
11135;SDS011;5622;50.840;4.948;2022-09-09T11:15:06;8.07;;;3.70;;
11135;SDS011;5622;50.840;4.948;2022-09-09T11:17:42;9.47;;;3.57;;
11135;SDS011;5622;50.840;4.948;2022-09-09T11:20:14;13.00;;;3.60;;
11135;SDS011;5622;50.840;4.948;2022-09-09T11:22:43;10.07;;;3.50;;
11135;SDS011;5622;50.840;4.948;2022-09-09T11:25:15;10.73;;;3.40;;
11135;SDS011;5622;50.840;4.948;2022-09-09T11:27:50;6.50;;;2.67;;
11135;SDS011;5622;50.840;4.948;2022-09-09T11:30:27;5.27;;;2.90;;
11135;SDS011;5622;50.840;4.948;2022-09-09T11:33:13;5.83;;;3.10;;
11135;SDS011;5622;50.840;4.948;2022-09-09T11:36:16;5.87;;;3.20;;
11135;SDS011;5622;50.840;4.948;2022-09-09T11:39:00;7.27;;;2.83;;
11135;SDS011;5622;50.840;4.948;2022-09-09T11:41:33;11.03;;;2.87;;
11135;SDS011;5622;50.840;4.948;2022-09-09T11:44:10;9.13;;;2.60;;
11135;SDS011;5622;50.840;4.948;2022-09-09T11:46:39;4.67;;;2.73;;
11135;SDS011;5622;50.840;4.948;2022-09-09T11:49:21;9.30;;;2.97;;
11135;SDS011;5622;50.840;4.948;2022-09-09T11:51:53;11.57;;;3.00;;
11135;SDS011;5622;50.840;4.948;2022-09-09T11:54:30;8.27;;;2.30;;
11135;SDS011;5622;50.840;4.948;2022-09-09T11:57:01;5.43;;;2.70;;
11135;SDS011;5622;50.840;4.948;2022-09-09T11:59:31;6.77;;;2.37;;
11135;SDS011;5622;50.840;4.948;2022-09-09T12:01:59;8.13;;;2.80;;
11135;SDS011;5622;50.840;4.948;2022-09-09T12:04:30;6.37;;;2.60;;
11135;SDS011;5622;50.840;4.948;2022-09-09T12:07:05;7.93;;;2.70;;
11135;SDS011;5622;50.840;4.948;2022-09-09T12:09:59;8.33;;;2.80;;
11135;SDS011;5622;50.840;4.948;2022-09-09T12:12:31;9.10;;;2.93;;
11135;SDS011;5622;50.840;4.948;2022-09-09T12:15:02;9.00;;;2.63;;
11135;SDS011;5622;50.840;4.948;2022-09-09T12:17:46;8.50;;;2.70;;
11135;SDS011;5622;50.840;4.948;2022-09-09T12:20:16;8.63;;;2.80;;
11135;SDS011;5622;50.840;4.948;2022-09-09T12:22:47;5.83;;;2.67;;
11135;SDS011;5622;50.840;4.948;2022-09-09T12:25:23;6.27;;;2.20;;
11135;SDS011;5622;50.840;4.948;2022-09-09T12:28:01;6.27;;;2.77;;
11135;SDS011;5622;50.840;4.948;2022-09-09T12:30:36;5.60;;;2.30;;
11135;SDS011;5622;50.840;4.948;2022-09-09T12:33:17;6.03;;;2.40;;
11135;SDS011;5622;50.840;4.948;2022-09-09T12:35:49;6.40;;;2.00;;
11135;SDS011;5622;50.840;4.948;2022-09-09T12:38:21;9.17;;;2.83;;
11135;SDS011;5622;50.840;4.948;2022-09-09T12:40:54;5.43;;;1.83;;
11135;SDS011;5622;50.840;4.948;2022-09-09T12:43:23;4.73;;;2.60;;
11135;SDS011;5622;50.840;4.948;2022-09-09T12:45:53;6.20;;;2.07;;
11135;SDS011;5622;50.840;4.948;2022-09-09T12:48:28;5.13;;;2.17;;
11135;SDS011;5622;50.840;4.948;2022-09-09T12:50:59;7.13;;;3.40;;
11135;SDS011;5622;50.840;4.948;2022-09-09T12:53:29;3.63;;;2.03;;
11135;SDS011;5622;50.840;4.948;2022-09-09T12:56:00;7.33;;;2.37;;
11135;SDS011;5622;50.840;4.948;2022-09-09T12:58:30;7.20;;;2.30;;
11135;SDS011;5622;50.840;4.948;2022-09-09T13:01:02;6.37;;;2.10;;
11135;SDS011;5622;50.840;4.948;2022-09-09T13:03:30;15.80;;;2.53;;
11135;SDS011;5622;50.840;4.948;2022-09-09T13:05:59;4.40;;;1.90;;
11135;SDS011;5622;50.840;4.948;2022-09-09T13:08:38;3.40;;;2.67;;
11135;SDS011;5622;50.840;4.948;2022-09-09T13:11:07;6.60;;;1.90;;
11135;SDS011;5622;50.840;4.948;2022-09-09T13:13:39;2.83;;;1.93;;
11135;SDS011;5622;50.840;4.948;2022-09-09T13:16:18;5.67;;;1.93;;
11135;SDS011;5622;50.840;4.948;2022-09-09T13:18:47;7.70;;;2.10;;
11135;SDS011;5622;50.840;4.948;2022-09-09T13:21:14;7.07;;;2.03;;
11135;SDS011;5622;50.840;4.948;2022-09-09T13:23:41;5.00;;;2.03;;
11135;SDS011;5622;50.840;4.948;2022-09-09T13:26:20;2.10;;;1.80;;
11135;SDS011;5622;50.840;4.948;2022-09-09T13:28:49;4.40;;;2.00;;
11135;SDS011;5622;50.840;4.948;2022-09-09T13:31:23;6.83;;;1.97;;
11135;SDS011;5622;50.840;4.948;2022-09-09T13:33:54;5.27;;;1.80;;
11135;SDS011;5622;50.840;4.948;2022-09-09T13:36:27;7.80;;;2.27;;
11135;SDS011;5622;50.840;4.948;2022-09-09T13:38:57;3.93;;;1.70;;
11135;SDS011;5622;50.840;4.948;2022-09-09T13:41:27;3.17;;;1.70;;
11135;SDS011;5622;50.840;4.948;2022-09-09T13:43:58;6.03;;;1.83;;
11135;SDS011;5622;50.840;4.948;2022-09-09T13:46:30;5.23;;;2.43;;
11135;SDS011;5622;50.840;4.948;2022-09-09T13:49:00;3.50;;;1.80;;
11135;SDS011;5622;50.840;4.948;2022-09-09T13:54:19;4.90;;;1.80;;
11135;SDS011;5622;50.840;4.948;2022-09-09T13:56:48;8.13;;;1.80;;
11135;SDS011;5622;50.840;4.948;2022-09-09T13:59:16;2.03;;;1.50;;
11135;SDS011;5622;50.840;4.948;2022-09-09T14:01:47;4.93;;;2.10;;
11135;SDS011;5622;50.840;4.948;2022-09-09T14:04:17;3.47;;;1.70;;
11135;SDS011;5622;50.840;4.948;2022-09-09T14:06:46;4.73;;;2.00;;
11135;SDS011;5622;50.840;4.948;2022-09-09T14:09:15;5.23;;;1.73;;
11135;SDS011;5622;50.840;4.948;2022-09-09T14:11:43;4.97;;;2.30;;
11135;SDS011;5622;50.840;4.948;2022-09-09T14:14:11;5.70;;;2.10;;
11135;SDS011;5622;50.840;4.948;2022-09-09T14:16:39;4.03;;;2.03;;
11135;SDS011;5622;50.840;4.948;2022-09-09T14:19:09;4.90;;;1.60;;
11135;SDS011;5622;50.840;4.948;2022-09-09T14:21:36;2.90;;;1.90;;
11135;SDS011;5622;50.840;4.948;2022-09-09T14:24:04;3.53;;;1.90;;
11135;SDS011;5622;50.840;4.948;2022-09-09T14:26:32;1.90;;;1.60;;
11135;SDS011;5622;50.840;4.948;2022-09-09T14:28:59;2.87;;;1.73;;
11135;SDS011;5622;50.840;4.948;2022-09-09T14:31:26;2.83;;;1.70;;
11135;SDS011;5622;50.840;4.948;2022-09-09T14:33:53;2.50;;;1.83;;
11135;SDS011;5622;50.840;4.948;2022-09-09T14:36:22;5.30;;;1.90;;
11135;SDS011;5622;50.840;4.948;2022-09-09T14:38:49;2.73;;;1.90;;
11135;SDS011;5622;50.840;4.948;2022-09-09T14:41:17;2.20;;;1.80;;
11135;SDS011;5622;50.840;4.948;2022-09-09T14:43:45;3.27;;;1.70;;
11135;SDS011;5622;50.840;4.948;2022-09-09T14:46:13;2.10;;;1.77;;
11135;SDS011;5622;50.840;4.948;2022-09-09T14:48:41;2.53;;;1.90;;
11135;SDS011;5622;50.840;4.948;2022-09-09T14:51:10;5.57;;;1.80;;
11135;SDS011;5622;50.840;4.948;2022-09-09T14:53:41;4.50;;;2.00;;
11135;SDS011;5622;50.840;4.948;2022-09-09T14:56:09;5.33;;;1.93;;
11135;SDS011;5622;50.840;4.948;2022-09-09T14:58:38;2.30;;;1.70;;
11135;SDS011;5622;50.840;4.948;2022-09-09T15:01:06;2.30;;;1.60;;
11135;SDS011;5622;50.840;4.948;2022-09-09T15:03:35;3.57;;;1.60;;
11135;SDS011;5622;50.840;4.948;2022-09-09T15:06:05;4.23;;;1.87;;
11135;SDS011;5622;50.840;4.948;2022-09-09T15:08:34;3.83;;;1.57;;
11135;SDS011;5622;50.840;4.948;2022-09-09T15:11:03;3.30;;;1.80;;
11135;SDS011;5622;50.840;4.948;2022-09-09T15:13:32;2.80;;;1.50;;
11135;SDS011;5622;50.840;4.948;2022-09-09T15:16:03;3.97;;;1.77;;
11135;SDS011;5622;50.840;4.948;2022-09-09T15:18:31;2.90;;;1.70;;
11135;SDS011;5622;50.840;4.948;2022-09-09T15:20:59;3.07;;;1.70;;
11135;SDS011;5622;50.840;4.948;2022-09-09T15:23:28;2.70;;;1.43;;
11135;SDS011;5622;50.840;4.948;2022-09-09T15:25:57;2.10;;;1.50;;
11135;SDS011;5622;50.840;4.948;2022-09-09T15:28:26;4.27;;;1.53;;
11135;SDS011;5622;50.840;4.948;2022-09-09T15:30:53;4.07;;;1.80;;
11135;SDS011;5622;50.840;4.948;2022-09-09T15:33:21;3.30;;;1.70;;
11135;SDS011;5622;50.840;4.948;2022-09-09T15:35:49;4.87;;;1.87;;
11135;SDS011;5622;50.840;4.948;2022-09-09T15:38:16;2.27;;;1.77;;
11135;SDS011;5622;50.840;4.948;2022-09-09T15:40:44;3.40;;;1.83;;
11135;SDS011;5622;50.840;4.948;2022-09-09T15:43:11;2.90;;;1.40;;
11135;SDS011;5622;50.840;4.948;2022-09-09T15:45:40;2.40;;;1.57;;
11135;SDS011;5622;50.840;4.948;2022-09-09T15:48:07;4.80;;;2.30;;
11135;SDS011;5622;50.840;4.948;2022-09-09T15:50:34;7.60;;;1.90;;
11135;SDS011;5622;50.840;4.948;2022-09-09T15:53:01;5.27;;;2.00;;
11135;SDS011;5622;50.840;4.948;2022-09-09T15:55:29;1.83;;;1.47;;
11135;SDS011;5622;50.840;4.948;2022-09-09T15:57:56;2.73;;;1.50;;
11135;SDS011;5622;50.840;4.948;2022-09-09T16:00:23;3.73;;;1.70;;